Airfield :







YOU CAN JOIN US ON...

 
LOGIN :

Register | Disclaimer

   EN    FR    IT 

 









Legend :    VFR   Marginal VFR   IFR   Intensive IFR   Very Intensive IFR
Visi :
Ceiling :
>= 8 km
>= 3000ft
5 to 8 km
1000 to 3000 ft
1500m to 5 km
500 to 1000 ft
800 to 1500m
200 to 500 ft
< 800m
< 200 ft
Symbols :   Thunderstorms  Fog  Heavy snow  Heavy precipitations  Wind > 20 kt






- Airport Elevation : 241 ft
- IATA code : CEF


KCEF - Westover ARB/Metropolitan

CURRENT METAR :
  • 010356Z AUTO 10007KT 10SM OVC050 02/M02 A2996 RMK AO2 SLP153 T00201023

EXPIRED METARs :
  • 010256Z 10005KT 10SM CLR 02/M01 A2996 RMK AO2A SLP153 T00201014 55001
  • 010156Z 00000KT 10SM CLR 01/M01 A2995 RMK AO2A SLP150 T00061010

TAF TAF KCEF
Valid from the 01 at 02:00 until the 02 at 08:00 UTC


010200Z 0102/0208 VRB06KT 9999 FEW025 QNH2984INS
BECMG 0112/0113 02012KT 9999 SCT040 QNH2983INS
BECMG 0114/0115 03010G18KT 9999 BKN050 OVC170 QNH2971INS
BECMG 0122/0123 01009KT 9999 BKN045 OVC170 QNH2972INS
TEMPO 0200/0206 36015G25KT
BECMG 0205/0206 35009KT 9999 FEW020 BKN040 OVC080 QNH2971INS TX10/0118Z TNM01/0112Z LAST NO AMDS AFT 0103 NEXT 0110



MET'MAP, your aeronautical weather chart ! - Copyright ORBIFLY December 2007 - Disclaimer

ORBIFLY MET'MAP TEAM :

Programming & Development : Alexandra Zaïnal
Concept & original design : Baudouin d'Aumeries
Assistance for programming : Marc-Olivier Méhu
Technical & hardware support : Manuel Goepfert

Contact : metmap@orbifly.com




SOURCES & CREDITS :

   NOAA